This is the latest recevied weather packets stored in our database for station/object K3HM. If no packets are shown the sender has not sent any weather packets the latest 10 day(s).
| Time | Temp. | Humidity | Pressure | Rain* | Wind** | Luminosity | Snow |
|---|---|---|---|---|---|---|---|
| 1777745534 | 6.11° C | 64% | 1014.4 hPa | 0 mm | - | 126 W/m² | - |
| 1777745230 | 6.11° C | 64% | 1014.5 hPa | 0 mm | - | 136 W/m² | - |
| 1777744928 | 6.11° C | 63% | 1014.5 hPa | 0 mm | - | 142 W/m² | - |
| 1777744627 | 6.67° C | 59% | 1014.4 hPa | 0 mm | - | 142 W/m² | - |
| 1777744323 | 6.67° C | 60% | 1014.4 hPa | 0 mm | - | 195 W/m² | - |
| 1777744020 | 6.67° C | 60% | 1014.4 hPa | 0 mm | - | 292 W/m² | - |
| 1777743715 | 6.67° C | 60% | 1014.3 hPa | 0 mm | - | 378 W/m² | - |
| 1777743413 | 6.11° C | 61% | 1014.3 hPa | 0 mm | - | 267 W/m² | - |
| 1777743111 | 6.11° C | 62% | 1014.4 hPa | 0 mm | - | 253 W/m² | - |
| 1777742809 | 6.11° C | 63% | 1014.4 hPa | 0 mm | - | 221 W/m² | - |
| 1777742504 | 6.67° C | 65% | 1014.4 hPa | 0 mm | - | 173 W/m² | - |
| 1777742201 | 6.67° C | 62% | 1014.5 hPa | 0 mm | - | 230 W/m² | - |
| 1777741898 | 6.11° C | 63% | 1014.5 hPa | 0 mm | - | 265 W/m² | - |
| 1777741595 | 6.11° C | 65% | 1014.4 hPa | 0 mm | - | 219 W/m² | - |
| 1777741292 | 5.56° C | 66% | 1014.3 hPa | 0 mm | - | 183 W/m² | - |
| 1777740988 | 6.11° C | 63% | 1014.6 hPa | 0 mm | - | 213 W/m² | - |
| 1777740685 | 6.11° C | 66% | 1014.6 hPa | 0 mm | - | 312 W/m² | - |
| 1777740381 | 6.11° C | 66% | 1014.6 hPa | 0 mm | - | 240 W/m² | - |
| 1777740078 | 5.56° C | 68% | 1014.7 hPa | 0 mm | - | 266 W/m² | - |
| 1777739774 | 5.56° C | 66% | 1014.5 hPa | 0 mm | - | 180 W/m² | - |
| 1777739471 | 6.67° C | 62% | 1014.7 hPa | 0 mm | - | 114 W/m² | - |
| 1777739168 | 6.67° C | 59% | 1014.6 hPa | 0 mm | - | 183 W/m² | - |
| 1777738865 | 5.56° C | 62% | 1014.7 hPa | 0 mm | - | 464 W/m² | - |
| 1777738562 | 5.56° C | 65% | 1014.5 hPa | 0 mm | - | 272 W/m² | - |
| 1777738259 | 5° C | 69% | 1014.8 hPa | 0 mm | - | 170 W/m² | - |
* Rain latest hour (hover to see other rain measurements)
** Current wind speed in m/s (hover to see current wind gust speed)